Time;durP1;ratioP1;P1;durP2;ratioP2;P2;SDS_P1;SDS_P2;PMS_P1;PMS_P2;Temp;Humidity;BMP_temperature;BMP_pressure;BME280_temperature;BME280_humidity;BME280_pressure;Samples;Min_cycle;Max_cycle;Signal;HPM_P1;HPM_P2
2021/01/19 00:01:01;;;;;;;16.60;14.63;;;5.20;99.90;;;;;;4945994;29;20698;-82
2021/01/19 00:03:28;;;;;;;13.80;12.43;;;5.20;99.90;;;;;;4952320;29;20229;-82
2021/01/19 00:05:54;;;;;;;16.13;14.47;;;5.30;99.90;;;;;;4932832;29;20242;-82
2021/01/19 00:08:21;;;;;;;14.93;13.33;;;5.30;99.90;;;;;;4950439;29;20227;-82
2021/01/19 00:10:47;;;;;;;16.43;14.73;;;5.30;99.90;;;;;;4951290;28;20222;-83
2021/01/19 00:13:19;;;;;;;19.23;14.40;;;5.20;99.90;;;;;;4949064;29;20222;-82
2021/01/19 00:15:47;;;;;;;18.30;16.50;;;5.20;99.90;;;;;;4949913;28;20302;-83
2021/01/19 00:18:14;;;;;;;20.70;17.30;;;5.20;99.90;;;;;;4949186;29;20218;-82
2021/01/19 00:20:43;;;;;;;17.45;15.60;;;5.20;99.90;;;;;;4948979;29;20231;-82
2021/01/19 00:23:12;;;;;;;17.43;15.83;;;5.20;99.90;;;;;;4934374;29;20227;-82
2021/01/19 00:25:39;;;;;;;18.97;16.33;;;5.20;99.90;;;;;;4951973;29;20223;-82
2021/01/19 00:28:05;;;;;;;20.47;17.63;;;5.20;99.90;;;;;;4948247;29;20259;-81
2021/01/19 00:30:32;;;;;;;20.80;18.40;;;5.10;99.90;;;;;;4948419;29;20709;-81
2021/01/19 00:33:01;;;;;;;21.17;18.10;;;5.10;99.90;;;;;;4950975;29;20241;-82
2021/01/19 00:35:36;;;;;;;21.90;19.40;;;5.10;99.90;;;;;;4949837;28;20220;-81
2021/01/19 00:38:04;;;;;;;22.33;19.57;;;5.10;99.90;;;;;;4933473;29;20225;-81
2021/01/19 00:40:31;;;;;;;22.77;18.73;;;5.00;99.90;;;;;;4948330;29;20270;-81
2021/01/19 00:42:58;;;;;;;24.17;20.37;;;4.90;99.90;;;;;;4948903;29;20215;-81
2021/01/19 00:45:25;;;;;;;23.20;20.33;;;4.80;99.90;;;;;;4951666;29;20230;-81
2021/01/19 00:47:52;;;;;;;39.07;23.40;;;4.80;99.90;;;;;;4947134;28;20215;-82
2021/01/19 00:50:19;;;;;;;23.00;20.40;;;4.80;99.90;;;;;;4949631;29;20222;-80
2021/01/19 00:52:46;;;;;;;23.60;21.20;;;4.90;99.90;;;;;;4950044;29;20223;-81
2021/01/19 00:55:16;;;;;;;22.83;20.30;;;4.90;99.90;;;;;;4950087;29;20226;-81
2021/01/19 00:57:46;;;;;;;24.70;21.20;;;5.00;99.90;;;;;;4946568;29;20242;-81
2021/01/19 01:00:16;;;;;;;24.50;21.60;;;5.00;99.90;;;;;;4944566;29;20616;-82
2021/01/19 01:02:43;;;;;;;22.27;20.00;;;5.00;99.90;;;;;;4945416;29;20246;-82
2021/01/19 01:05:11;;;;;;;21.40;18.90;;;5.00;99.90;;;;;;4945320;28;20195;-82
2021/01/19 01:07:40;;;;;;;22.00;19.70;;;5.10;99.90;;;;;;4946399;29;20234;-82
2021/01/19 01:10:09;;;;;;;24.97;19.43;;;5.10;99.90;;;;;;4933154;29;20229;-82
2021/01/19 01:12:36;;;;;;;22.67;19.07;;;5.10;99.90;;;;;;4961742;28;20554;-82
2021/01/19 01:15:04;;;;;;;24.07;19.30;;;5.10;99.90;;;;;;4966594;28;20226;-82
2021/01/19 01:17:35;;;;;;;22.97;19.40;;;5.10;99.90;;;;;;4957329;29;20222;-82
2021/01/19 01:20:03;;;;;;;20.47;16.43;;;5.10;99.90;;;;;;4949441;29;20225;-83
2021/01/19 01:22:38;;;;;;;19.60;17.70;;;5.10;99.90;;;;;;4951488;29;20215;-82
2021/01/19 01:25:13;;;;;;;23.67;17.17;;;5.10;99.90;;;;;;4948829;28;20268;-83
2021/01/19 01:27:41;;;;;;;26.53;21.40;;;5.10;99.90;;;;;;4932513;29;20229;-82
2021/01/19 01:30:10;;;;;;;20.27;17.90;;;5.00;99.90;;;;;;4948587;29;20231;-82
2021/01/19 01:32:39;;;;;;;19.73;17.73;;;5.00;99.90;;;;;;4946938;29;20221;-83
2021/01/19 01:35:07;;;;;;;22.90;19.87;;;5.00;99.90;;;;;;4948914;29;20231;-82
2021/01/19 01:37:33;;;;;;;23.73;18.30;;;4.90;99.90;;;;;;4948786;28;20272;-82
2021/01/19 01:40:00;;;;;;;26.27;16.93;;;4.90;99.90;;;;;;4957757;29;20218;-82
2021/01/19 01:42:28;;;;;;;22.60;18.53;;;4.90;99.90;;;;;;4953801;29;20698;-82
2021/01/19 01:44:54;;;;;;;24.87;17.80;;;4.90;99.90;;;;;;4951442;29;20241;-82
2021/01/19 01:47:25;;;;;;;20.85;16.77;;;5.00;99.90;;;;;;4948918;28;20227;-82
2021/01/19 01:49:52;;;;;;;25.93;17.57;;;5.00;99.90;;;;;;4952366;28;20735;-82
2021/01/19 01:52:21;;;;;;;21.17;18.27;;;5.00;99.90;;;;;;4956380;29;20230;-82
2021/01/19 01:54:50;;;;;;;20.57;17.13;;;5.00;99.90;;;;;;4964694;28;20199;-82
2021/01/19 01:57:16;;;;;;;24.53;17.70;;;5.00;99.90;;;;;;4968561;28;20219;-82
2021/01/19 01:59:51;;;;;;;21.73;17.27;;;5.00;99.90;;;;;;4946553;29;20274;-82
2021/01/19 02:02:17;;;;;;;21.70;17.90;;;5.00;99.90;;;;;;4950785;29;20242;-82
2021/01/19 02:04:44;;;;;;;17.50;15.40;;;5.00;99.90;;;;;;4948003;29;20226;-81
2021/01/19 02:07:20;;;;;;;20.40;16.20;;;5.00;99.90;;;;;;4949776;28;20229;-82
2021/01/19 02:10:05;;;;;;;18.47;16.60;;;4.90;99.90;;;;;;4932087;29;20229;-81
2021/01/19 02:12:41;;;;;;;26.27;18.40;;;5.00;99.90;;;;;;4948304;29;20215;-81
2021/01/19 02:15:10;;;;;;;24.33;16.23;;;5.10;99.90;;;;;;4945389;29;20217;-81
2021/01/19 02:17:47;;;;;;;22.30;17.30;;;4.90;99.90;;;;;;4947577;29;20289;-81
2021/01/19 02:20:50;;;;;;;18.92;16.98;;;5.00;99.90;;;;;;4947455;29;20233;-81
2021/01/19 02:23:36;;;;;;;19.63;16.37;;;5.00;99.90;;;;;;4945924;29;20224;-82
2021/01/19 02:26:37;;;;;;;19.33;15.93;;;5.00;99.90;;;;;;4951481;29;20226;-82
2021/01/19 13:24:32;;;;;;;1.07;1.07;;;5.30;99.90;;;;;;4932361;29;20200;-81
2021/01/19 13:26:59;;;;;;;2.20;2.10;;;5.40;99.90;;;;;;4930513;29;20235;-81
2021/01/19 13:29:26;;;;;;;1.43;1.33;;;5.40;99.90;;;;;;4927225;29;20231;-80
2021/01/19 13:31:59;;;;;;;1.50;1.40;;;5.40;99.90;;;;;;4928973;29;20783;-81
2021/01/19 13:34:26;;;;;;;1.67;1.57;;;5.50;99.90;;;;;;4907090;29;20231;-82
2021/01/19 13:36:53;;;;;;;1.97;1.43;;;5.50;99.90;;;;;;4908231;29;20336;-81
2021/01/19 13:39:21;;;;;;;1.57;1.40;;;5.50;99.90;;;;;;4923331;29;20211;-81
2021/01/19 13:41:53;;;;;;;1.40;1.30;;;5.50;99.90;;;;;;4907124;29;20295;-79
2021/01/19 13:44:21;;;;;;;1.67;1.40;;;5.60;99.90;;;;;;4925087;29;20227;-83
2021/01/19 13:46:48;;;;;;;1.50;1.40;;;5.80;99.90;;;;;;4908881;29;20311;-82
2021/01/19 13:49:16;;;;;;;1.40;1.30;;;5.90;99.90;;;;;;4910151;29;20295;-81
2021/01/19 13:51:57;;;;;;;1.40;1.30;;;6.00;99.90;;;;;;4924861;29;20226;-81
2021/01/19 13:54:42;;;;;;;1.00;1.00;;;6.10;99.90;;;;;;4935076;29;20227;-81
2021/01/19 13:57:25;;;;;;;1.77;1.10;;;6.20;99.90;;;;;;4943785;29;20293;-82
2021/01/19 13:59:54;;;;;;;1.27;1.27;;;6.30;99.90;;;;;;4929963;29;20250;-81
2021/01/19 14:02:22;;;;;;;1.17;1.07;;;6.30;99.90;;;;;;4945112;29;20289;-82
2021/01/19 14:05:10;;;;;;;1.00;1.00;;;6.30;99.90;;;;;;4946221;29;20218;-80
2021/01/19 14:07:37;;;;;;;1.23;1.23;;;6.40;99.90;;;;;;4927952;29;20222;-79
2021/01/19 14:14:05;;;;;;;1.30;1.20;;;6.50;99.90;;;;;;4960801;29;20210;-82
2021/01/19 14:17:17;;;;;;;0.97;0.97;;;6.60;99.90;;;;;;4962944;28;20246;-82
2021/01/19 14:19:44;;;;;;;0.80;0.80;;;6.60;99.90;;;;;;4944977;29;20207;-78
2021/01/19 14:22:11;;;;;;;1.37;1.27;;;6.60;99.90;;;;;;4959831;28;20214;-79
2021/01/19 14:24:47;;;;;;;1.00;1.00;;;6.60;99.90;;;;;;4960941;28;20289;-81
2021/01/19 14:27:25;;;;;;;0.80;0.80;;;6.60;99.90;;;;;;4960120;28;20341;-78
2021/01/19 14:30:22;;;;;;;2.00;1.10;;;6.70;99.90;;;;;;4958279;29;20234;-79
2021/01/19 14:33:10;;;;;;;1.33;1.10;;;6.70;99.90;;;;;;4961624;28;20594;-82
2021/01/19 14:35:40;;;;;;;0.80;0.80;;;6.80;99.90;;;;;;4960356;28;20230;-82
2021/01/19 14:38:07;;;;;;;0.90;0.90;;;6.80;99.90;;;;;;4946020;29;20225;-80
2021/01/19 14:41:01;;;;;;;1.00;1.00;;;6.90;99.90;;;;;;4934298;29;20248;-82
2021/01/19 14:43:41;;;;;;;3.67;1.10;;;7.00;99.90;;;;;;4921963;29;20698;-82
2021/01/19 14:51:20;;;;;;;1.10;1.10;;;7.00;99.90;;;;;;4883090;29;20231;-82
2021/01/19 14:53:57;;;;;;;1.07;1.00;;;7.00;99.90;;;;;;4939419;29;20240;-82
2021/01/19 14:56:49;;;;;;;1.07;1.07;;;7.10;99.90;;;;;;4924992;29;20291;-82
2021/01/19 14:59:27;;;;;;;0.87;0.87;;;7.10;99.90;;;;;;4925780;29;20259;-81
2021/01/19 15:01:54;;;;;;;0.80;0.80;;;7.10;99.90;;;;;;4956971;29;20211;-82
2021/01/19 15:04:45;;;;;;;1.10;1.10;;;7.10;99.90;;;;;;4957585;29;20226;-82
2021/01/19 15:07:15;;;;;;;0.83;0.83;;;7.20;99.90;;;;;;4941695;29;20226;-82
2021/01/19 15:09:55;;;;;;;1.10;1.00;;;7.10;99.90;;;;;;4940284;29;20242;-82
2021/01/19 15:12:53;;;;;;;1.33;1.23;;;7.20;99.90;;;;;;4887100;29;20220;-83
2021/01/19 15:16:16;;;;;;;1.20;1.10;;;7.30;99.90;;;;;;4880956;29;20288;-82
2021/01/19 15:18:44;;;;;;;1.50;1.40;;;7.20;99.90;;;;;;4907804;29;20216;-83
2021/01/19 15:21:11;;;;;;;0.87;0.87;;;7.20;99.90;;;;;;4920369;29;20305;-83
2021/01/19 15:23:58;;;;;;;2.20;1.37;;;7.30;99.90;;;;;;4957641;29;20225;-83
2021/01/19 15:26:24;;;;;;;1.00;1.00;;;7.30;99.90;;;;;;4934751;29;20287;-81
2021/01/19 15:28:51;;;;;;;1.00;1.00;;;7.20;99.90;;;;;;4953365;29;20732;-81
2021/01/19 15:31:19;;;;;;;0.90;0.90;;;7.40;99.90;;;;;;4955651;28;20701;-81
2021/01/19 15:34:02;;;;;;;1.30;1.27;;;7.40;99.90;;;;;;4961834;29;20219;-81
2021/01/19 15:36:32;;;;;;;1.40;1.30;;;7.40;99.90;;;;;;4942993;29;20457;-84
2021/01/19 15:39:01;;;;;;;2.27;1.50;;;7.30;99.90;;;;;;4945224;29;20238;-83
2021/01/19 15:41:29;;;;;;;1.67;1.57;;;7.40;99.90;;;;;;4962402;29;20221;-84
2021/01/19 15:44:17;;;;;;;1.57;1.47;;;7.30;99.90;;;;;;4924570;29;20227;-85
2021/01/19 15:46:46;;;;;;;1.50;1.40;;;7.30;99.90;;;;;;4925620;29;20219;-84
2021/01/19 15:49:13;;;;;;;1.80;1.70;;;7.40;99.90;;;;;;4941457;29;20722;-83
2021/01/19 15:51:54;;;;;;;2.47;2.27;;;7.40;99.90;;;;;;4942566;29;20236;-85
2021/01/19 15:54:27;;;;;;;2.00;1.90;;;7.40;99.90;;;;;;4942334;29;20241;-84
2021/01/19 15:56:55;;;;;;;2.10;2.00;;;7.40;99.90;;;;;;4942049;29;20231;-84
2021/01/19 15:59:26;;;;;;;3.17;2.72;;;7.30;99.90;;;;;;4942571;29;20257;-82
2021/01/19 16:01:54;;;;;;;2.77;2.57;;;7.30;99.90;;;;;;4945873;29;20222;-84
2021/01/19 16:04:23;;;;;;;3.83;3.53;;;7.30;99.90;;;;;;4945773;29;20270;-83
2021/01/19 16:06:52;;;;;;;3.87;3.20;;;7.30;99.90;;;;;;4934111;29;20222;-84
2021/01/19 16:09:19;;;;;;;4.60;4.17;;;7.40;99.90;;;;;;4952295;29;20234;-83
2021/01/19 16:11:48;;;;;;;3.20;3.00;;;7.40;99.90;;;;;;4955231;29;20750;-83
2021/01/19 16:14:15;;;;;;;3.13;2.93;;;7.40;99.90;;;;;;4957332;29;20641;-83
2021/01/19 16:16:42;;;;;;;2.73;2.53;;;7.50;99.90;;;;;;4947420;29;20222;-83
2021/01/19 16:19:10;;;;;;;3.10;2.90;;;7.40;99.90;;;;;;4948838;29;20702;-82
2021/01/19 16:21:37;;;;;;;4.50;4.17;;;7.50;99.90;;;;;;4954901;29;20219;-84
2021/01/19 16:24:13;;;;;;;3.77;3.47;;;7.50;99.90;;;;;;4953497;28;20229;-83
2021/01/19 16:26:45;;;;;;;3.40;3.10;;;7.50;99.90;;;;;;4948923;28;20230;-82
2021/01/19 16:29:12;;;;;;;4.27;3.97;;;7.60;99.90;;;;;;4951346;29;20253;-83
2021/01/19 16:31:48;;;;;;;4.18;3.78;;;7.60;99.90;;;;;;4950039;28;20690;-83
2021/01/19 16:34:15;;;;;;;4.13;3.83;;;7.60;99.90;;;;;;4950520;28;20676;-83
2021/01/19 16:36:42;;;;;;;4.20;3.90;;;7.60;99.90;;;;;;4936441;29;20273;-83
2021/01/19 16:39:11;;;;;;;4.63;4.33;;;7.60;99.90;;;;;;4977439;28;20199;-83
2021/01/19 16:41:42;;;;;;;4.38;3.97;;;7.60;99.90;;;;;;4951502;29;20250;-83
2021/01/19 16:44:11;;;;;;;4.73;4.43;;;7.60;99.90;;;;;;4956966;28;20227;-84
2021/01/19 16:46:48;;;;;;;5.57;5.17;;;7.60;99.90;;;;;;4953749;28;20322;-83
2021/01/19 16:49:19;;;;;;;5.17;4.77;;;7.70;99.90;;;;;;4931503;29;20215;-82
2021/01/19 16:51:48;;;;;;;5.93;5.53;;;7.80;99.90;;;;;;4952896;28;20229;-83
2021/01/19 16:54:15;;;;;;;6.47;5.97;;;7.90;99.90;;;;;;4961851;29;20223;-83
2021/01/19 16:56:47;;;;;;;6.23;5.63;;;8.00;99.90;;;;;;4945653;29;20251;-82
2021/01/19 16:59:15;;;;;;;6.03;5.53;;;8.10;99.90;;;;;;4925319;29;20223;-83
2021/01/19 17:01:52;;;;;;;8.40;7.70;;;8.10;99.90;;;;;;4940858;29;20566;-83
2021/01/19 17:04:19;;;;;;;5.50;5.10;;;8.20;99.90;;;;;;4923866;29;20291;-84
2021/01/19 17:06:52;;;;;;;4.57;4.27;;;8.30;99.90;;;;;;4938029;29;20235;-83
2021/01/19 17:09:25;;;;;;;5.03;4.63;;;8.40;99.90;;;;;;4961495;29;20270;-84
2021/01/19 17:11:55;;;;;;;5.33;4.93;;;8.50;99.90;;;;;;4962576;29;20219;-83
2021/01/19 17:14:34;;;;;;;5.70;5.30;;;8.60;99.90;;;;;;4948570;29;20229;-83
2021/01/19 17:17:01;;;;;;;5.33;4.87;;;8.50;99.90;;;;;;4964135;28;20233;-83
2021/01/19 17:19:34;;;;;;;4.77;4.47;;;8.70;99.90;;;;;;4963658;28;20230;-84
2021/01/19 17:22:28;;;;;;;5.27;4.87;;;8.80;99.90;;;;;;4949603;29;20226;-83
2021/01/19 17:25:06;;;;;;;5.70;5.30;;;8.80;99.90;;;;;;4966311;28;20199;-84
2021/01/19 17:27:52;;;;;;;4.27;3.97;;;8.90;99.90;;;;;;4960940;28;20317;-84
2021/01/19 17:30:24;;;;;;;4.73;4.43;;;8.90;99.90;;;;;;4961939;29;20234;-84
2021/01/19 17:33:18;;;;;;;4.70;4.40;;;8.90;99.90;;;;;;4959331;29;20598;-84
2021/01/19 17:35:57;;;;;;;5.83;5.43;;;8.90;99.90;;;;;;4958816;28;20285;-84
2021/01/19 17:38:36;;;;;;;6.27;5.87;;;8.90;99.90;;;;;;4958466;29;20277;-84
2021/01/19 17:41:05;;;;;;;6.40;5.97;;;8.80;99.90;;;;;;4959450;29;20636;-84
2021/01/19 17:43:32;;;;;;;7.90;7.10;;;8.80;99.90;;;;;;4961611;28;20277;-84
2021/01/19 17:45:59;;;;;;;5.63;5.22;;;8.90;99.90;;;;;;4964994;28;20230;-83
2021/01/19 17:48:26;;;;;;;7.07;6.57;;;9.00;99.90;;;;;;4966772;28;20300;-84
2021/01/19 17:50:52;;;;;;;6.57;5.97;;;9.00;99.90;;;;;;4962494;28;20246;-83
2021/01/19 17:53:19;;;;;;;6.73;6.23;;;9.10;99.90;;;;;;4950278;28;20788;-83
2021/01/19 17:55:46;;;;;;;6.83;6.30;;;9.20;99.90;;;;;;4957206;28;20273;-82
2021/01/19 17:58:15;;;;;;;7.10;6.57;;;9.20;99.90;;;;;;4962782;28;20223;-83
2021/01/19 18:00:43;;;;;;;7.80;7.00;;;9.30;99.90;;;;;;4961535;28;20222;-82
2021/01/19 18:03:11;;;;;;;6.53;6.03;;;9.20;99.90;;;;;;4961639;29;20590;-82
2021/01/19 18:05:37;;;;;;;7.77;7.13;;;9.20;99.90;;;;;;4960120;28;20339;-83
2021/01/19 18:08:05;;;;;;;6.90;6.40;;;9.20;99.90;;;;;;4960253;28;20229;-82
2021/01/19 18:10:36;;;;;;;6.77;6.27;;;9.20;99.90;;;;;;4968953;28;20303;-83
2021/01/19 18:13:04;;;;;;;6.93;6.40;;;9.20;99.90;;;;;;4958634;29;20215;-84
2021/01/19 18:15:31;;;;;;;7.13;6.37;;;9.30;99.90;;;;;;4941113;29;20235;-82
2021/01/19 18:17:57;;;;;;;6.87;6.17;;;9.30;99.90;;;;;;4928576;29;20273;-83
2021/01/19 18:20:25;;;;;;;6.40;5.90;;;9.30;99.90;;;;;;4941700;29;20219;-83
2021/01/19 18:22:52;;;;;;;7.00;6.50;;;9.30;99.90;;;;;;4942046;29;20720;-83
2021/01/19 18:25:20;;;;;;;5.87;5.47;;;9.40;99.90;;;;;;4941938;29;20238;-83
2021/01/19 18:27:47;;;;;;;6.65;6.15;;;9.30;99.90;;;;;;4940438;29;20229;-83
2021/01/19 18:30:15;;;;;;;6.20;5.70;;;9.40;99.90;;;;;;4940392;29;20786;-83
2021/01/19 18:32:42;;;;;;;6.70;6.07;;;9.30;99.90;;;;;;4925815;29;20227;-83
2021/01/19 18:35:10;;;;;;;6.33;5.83;;;9.40;99.90;;;;;;4940180;29;20211;-84
2021/01/19 18:37:41;;;;;;;7.00;6.40;;;9.40;99.90;;;;;;4939367;29;20230;-83
2021/01/19 18:40:09;;;;;;;7.47;6.70;;;9.40;99.90;;;;;;4946525;29;20218;-83
2021/01/19 18:42:39;;;;;;;6.83;6.23;;;9.40;99.90;;;;;;4947234;29;20226;-83
2021/01/19 18:45:06;;;;;;;6.37;5.77;;;9.40;99.90;;;;;;4930507;29;20234;-84
2021/01/19 18:47:33;;;;;;;6.17;5.57;;;9.40;99.90;;;;;;4939767;29;20295;-82
2021/01/19 18:50:00;;;;;;;8.03;7.33;;;9.40;99.90;;;;;;4921726;29;20231;-82
2021/01/19 18:52:27;;;;;;;8.52;6.70;;;9.40;99.90;;;;;;4943705;29;20226;-83
2021/01/19 18:54:55;;;;;;;7.20;6.50;;;9.30;99.90;;;;;;4942012;29;20215;-83
2021/01/19 18:57:22;;;;;;;7.33;6.73;;;9.40;99.90;;;;;;4942904;29;20230;-82
2021/01/19 18:59:49;;;;;;;9.30;8.43;;;9.40;99.90;;;;;;4927029;29;20227;-82
2021/01/19 19:02:17;;;;;;;7.68;6.97;;;9.40;99.90;;;;;;4943682;29;20282;-82
2021/01/19 19:04:44;;;;;;;8.00;7.30;;;9.40;99.90;;;;;;4944274;29;20222;-83
2021/01/19 19:07:11;;;;;;;8.23;7.43;;;9.40;99.90;;;;;;4944712;29;20598;-83
2021/01/19 19:09:39;;;;;;;9.77;8.80;;;9.30;99.90;;;;;;4926931;29;20287;-84
2021/01/19 19:12:09;;;;;;;9.20;8.40;;;9.30;99.90;;;;;;4945974;29;20586;-83
2021/01/19 19:14:38;;;;;;;9.37;8.47;;;9.20;99.90;;;;;;4945613;29;20249;-83
2021/01/19 19:17:05;;;;;;;8.50;7.70;;;9.20;99.90;;;;;;4943413;29;20318;-82
2021/01/19 19:19:32;;;;;;;8.57;7.70;;;9.20;99.90;;;;;;4943558;29;20314;-84
2021/01/19 19:21:58;;;;;;;7.40;6.72;;;9.20;99.90;;;;;;4943317;29;20226;-83
2021/01/19 19:24:27;;;;;;;8.53;7.73;;;9.10;99.90;;;;;;4943343;29;20227;-83
2021/01/19 19:26:54;;;;;;;7.77;7.13;;;9.10;99.90;;;;;;4944552;29;20254;-84
2021/01/19 19:29:21;;;;;;;7.57;6.63;;;9.10;99.90;;;;;;4941416;29;20662;-84
2021/01/19 19:31:50;;;;;;;8.07;7.27;;;9.10;99.90;;;;;;4943083;29;20219;-84
2021/01/19 19:34:20;;;;;;;7.00;6.40;;;9.10;99.90;;;;;;4943813;29;20746;-84
2021/01/19 19:36:47;;;;;;;7.85;7.15;;;9.00;99.90;;;;;;4943939;29;20258;-82
2021/01/19 19:39:14;;;;;;;7.23;6.63;;;9.10;99.90;;;;;;4927153;29;20210;-83
2021/01/19 19:41:42;;;;;;;7.53;6.78;;;9.10;99.90;;;;;;4926456;29;20222;-84
2021/01/19 19:44:10;;;;;;;7.43;6.73;;;9.10;99.90;;;;;;4944373;29;20729;-84
2021/01/19 19:46:40;;;;;;;7.77;7.17;;;9.00;99.90;;;;;;4942256;29;20250;-84
2021/01/19 19:49:09;;;;;;;6.93;6.38;;;9.10;99.90;;;;;;4942620;29;20248;-84
2021/01/19 19:51:36;;;;;;;7.00;6.40;;;9.10;99.90;;;;;;4925097;29;20231;-84
2021/01/19 19:54:03;;;;;;;6.37;5.87;;;9.10;99.90;;;;;;4956032;29;20219;-84
2021/01/19 19:56:33;;;;;;;5.93;5.43;;;9.10;99.90;;;;;;4930987;29;20570;-83
2021/01/19 19:59:00;;;;;;;6.83;5.87;;;9.10;99.90;;;;;;4939073;29;20234;-83
2021/01/19 20:01:29;;;;;;;7.00;6.40;;;9.00;99.90;;;;;;4941355;29;20595;-84
2021/01/19 20:03:56;;;;;;;8.00;7.30;;;9.00;99.90;;;;;;4943067;29;20242;-84
2021/01/19 20:06:26;;;;;;;6.57;5.80;;;9.00;99.90;;;;;;4942458;29;20219;-84
2021/01/19 20:08:59;;;;;;;6.13;5.57;;;8.80;99.90;;;;;;4946344;29;20222;-84
2021/01/19 20:11:29;;;;;;;6.43;5.70;;;8.80;99.90;;;;;;4954523;29;20239;-82
2021/01/19 20:14:02;;;;;;;6.10;5.60;;;8.80;99.90;;;;;;4938197;29;20638;-82
2021/01/19 20:16:29;;;;;;;5.17;4.73;;;8.80;99.90;;;;;;4957174;28;20622;-81
2021/01/19 20:19:02;;;;;;;5.00;4.60;;;8.70;99.90;;;;;;4955008;29;20207;-82
